Flugplatz Auerbach

Für EDOA sind keine METAR/TAF Berichte vorhanden.
Es werden die Flugwettermeldungen vom Flugplatz Hof-Plauen in 43 km Entfernung angezeigt.

Bericht für EDQM

vom 07.08. um 17:50 UTC

variable Windrichtung mit 3 kt

Sichtweite 10 km oder mehr

gute Sicht, keine Wolken < 5000 ft, keine CB, keine Wettererscheinungen (CAVOK)

Temperatur 27.0°C

Taupunkt 15.0°C

Luftfeuchtigkeit 48%

Luftdruck 1022 hPa

EDQM 071750Z VRB03KT CAVOK 27/15 Q1022

Prognose für EDQM

vom 07.08. um 17:00 UTC

Zwischen 18:00 UTC und 03:00 UTC

variable Windrichtung mit 3 kt

Sichtweite 10 km oder mehr

keine signifikanten Wettererscheinungen

keine Wolken

TAF EDQM 071700Z 0718/0803 VRB03KT CAVOK
Impressum